Time;durP1;ratioP1;P1;durP2;ratioP2;P2;SDS_P1;SDS_P2;PMS_P1;PMS_P2;Temp;Humidity;BMP_temperature;BMP_pressure;BME280_temperature;BME280_humidity;BME280_pressure;Samples;Min_cycle;Max_cycle;Signal;HPM_P1;HPM_P2
2022/12/03 00:01:12;;;;;;;29.20;22.63;;;;;;;1.04;100.00;102206.47;4953742;28;20031;-87
2022/12/03 00:03:37;;;;;;;29.67;23.23;;;;;;;1.08;100.00;102207.09;4940986;28;20093;-84
2022/12/03 00:06:03;;;;;;;29.13;22.43;;;;;;;0.98;100.00;102194.44;4953051;28;20364;-87
2022/12/03 00:08:28;;;;;;;29.80;23.43;;;;;;;0.92;100.00;102191.38;4953069;28;20086;-86
2022/12/03 00:10:54;;;;;;;29.53;23.10;;;;;;;0.98;100.00;102196.22;4953194;28;20488;-84
2022/12/03 00:13:19;;;;;;;29.57;22.10;;;;;;;0.97;100.00;102184.72;4953844;28;20393;-85
2022/12/03 00:15:44;;;;;;;30.83;23.23;;;;;;;1.01;100.00;102199.53;4942187;28;20070;-86
2022/12/03 00:18:10;;;;;;;29.20;22.93;;;;;;;0.96;100.00;102185.66;4934728;28;20175;-87
2022/12/03 00:20:35;;;;;;;30.37;23.03;;;;;;;1.03;100.00;102187.88;4952527;28;20475;-87
2022/12/03 00:23:00;;;;;;;28.90;22.67;;;;;;;1.03;100.00;102190.56;4953075;28;20068;-86
2022/12/03 00:25:26;;;;;;;29.10;22.47;;;;;;;0.99;100.00;102195.28;4952911;28;20442;-87
2022/12/03 00:27:51;;;;;;;29.90;23.40;;;;;;;1.05;100.00;102188.59;4941737;28;20134;-85
2022/12/03 00:30:16;;;;;;;31.20;23.83;;;;;;;1.05;100.00;102188.59;4952479;28;20035;-86
2022/12/03 00:32:42;;;;;;;30.50;23.60;;;;;;;1.02;100.00;102187.06;4941732;28;20061;-85
2022/12/03 00:35:08;;;;;;;30.27;22.90;;;;;;;1.06;100.00;102179.66;4952758;28;20036;-87
2022/12/03 00:37:34;;;;;;;29.83;22.87;;;;;;;1.03;100.00;102180.72;4952589;28;20379;-85
2022/12/03 00:40:00;;;;;;;29.93;23.77;;;;;;;0.93;100.00;102169.91;4953755;28;20034;-85
2022/12/03 00:42:26;;;;;;;30.47;23.33;;;;;;;0.98;100.00;102172.22;4940435;28;20042;-88
2022/12/03 00:44:51;;;;;;;31.00;24.37;;;;;;;0.95;100.00;102173.31;4949131;28;20310;-87
2022/12/03 00:47:17;;;;;;;33.23;24.40;;;;;;;1.00;100.00;102178.28;4952211;28;20070;-86
2022/12/03 00:49:42;;;;;;;31.60;23.93;;;;;;;0.97;100.00;102170.53;4952091;28;20475;-85
2022/12/03 00:52:07;;;;;;;33.50;25.33;;;;;;;0.99;100.00;102179.25;4941794;28;20043;-84
2022/12/03 00:54:33;;;;;;;31.40;23.70;;;;;;;0.83;100.00;102148.41;4953008;28;20083;-86
2022/12/03 00:56:58;;;;;;;31.87;24.67;;;;;;;0.98;100.00;102167.75;4941616;28;20043;-85
2022/12/03 00:59:24;;;;;;;32.23;24.77;;;;;;;0.90;100.00;102159.47;4953503;28;20121;-84
2022/12/03 01:01:49;;;;;;;32.83;24.37;;;;;;;0.91;100.00;102150.50;4952180;28;20542;-85
2022/12/03 01:04:14;;;;;;;31.53;24.33;;;;;;;1.00;100.00;102178.28;4937171;28;20515;-85
2022/12/03 01:06:40;;;;;;;31.63;25.37;;;;;;;0.94;100.00;102178.75;4952683;28;20138;-87
2022/12/03 01:09:05;;;;;;;33.07;25.90;;;;;;;0.95;100.00;102172.44;4953072;28;20088;-86
2022/12/03 01:11:36;;;;;;;31.77;24.60;;;;;;;0.99;100.00;102182.78;4952009;28;20041;-85
2022/12/03 01:14:29;;;;;;;33.30;25.07;;;;;;;0.89;100.00;102167.59;4952446;28;20363;-84
2022/12/03 01:16:57;;;;;;;32.83;24.57;;;;;;;1.00;100.00;102175.63;4947625;28;20853;-85
2022/12/03 01:19:23;;;;;;;31.93;24.87;;;;;;;0.91;100.00;102165.63;4941392;28;20039;-88
2022/12/03 01:21:50;;;;;;;31.03;25.43;;;;;;;0.90;100.00;102172.81;4952420;28;20406;-85
2022/12/03 01:24:16;;;;;;;30.93;23.80;;;;;;;0.99;100.00;102176.59;4948639;28;20031;-85
2022/12/03 01:26:42;;;;;;;32.30;24.83;;;;;;;0.98;100.00;102183.75;4951239;28;20054;-85
2022/12/03 01:29:08;;;;;;;32.10;24.57;;;;;;;1.02;100.00;102176.38;4952405;28;20117;-87
2022/12/03 01:34:17;;;;;;;33.00;25.97;;;;;;;1.01;100.00;102174.66;4951889;28;20071;-86
2022/12/03 01:36:43;;;;;;;31.87;24.20;;;;;;;0.97;100.00;102175.88;4941149;28;20042;-86
2022/12/03 01:39:08;;;;;;;32.23;24.67;;;;;;;0.98;100.00;102166.88;4952027;28;20117;-86
2022/12/03 01:41:34;;;;;;;32.57;26.60;;;;;;;0.93;100.00;102174.41;4938885;28;20622;-86
2022/12/03 01:44:01;;;;;;;33.40;25.97;;;;;;;0.92;100.00;102160.19;4951439;28;20053;-86
2022/12/03 01:46:36;;;;;;;33.03;25.70;;;;;;;0.95;100.00;102162.66;4950788;28;20050;-86
2022/12/03 01:49:01;;;;;;;32.77;25.90;;;;;;;0.96;100.00;102155.47;4951657;28;20780;-85
2022/12/03 01:51:28;;;;;;;37.07;27.57;;;;;;;0.95;100.00;102157.31;4951449;28;20043;-87
2022/12/03 01:53:58;;;;;;;32.77;25.70;;;;;;;0.99;100.00;102155.22;4952410;28;20053;-86
2022/12/03 01:56:23;;;;;;;34.07;26.33;;;;;;;1.01;100.00;102154.16;4958434;28;20303;-89
2022/12/03 01:58:49;;;;;;;34.30;26.50;;;;;;;1.04;100.00;102163.75;4921051;28;20333;-88
2022/12/03 02:01:17;;;;;;;32.43;26.17;;;;;;;1.06;100.00;102160.97;4934362;28;20183;-88
2022/12/03 02:03:43;;;;;;;33.67;25.70;;;;;;;1.07;100.00;102165.34;4951308;28;20428;-89
2022/12/03 02:06:21;;;;;;;35.97;26.90;;;;;;;1.13;100.00;102154.16;4951037;28;20041;-86
2022/12/03 02:08:48;;;;;;;33.73;26.30;;;;;;;1.06;100.00;102153.81;4950216;28;20031;-89
2022/12/03 02:11:36;;;;;;;35.97;28.03;;;;;;;1.13;100.00;102165.72;4948297;28;20038;-87
2022/12/03 02:14:06;;;;;;;33.83;26.37;;;;;;;1.10;100.00;102160.63;4951371;28;20891;-87
2022/12/03 02:16:34;;;;;;;34.13;27.30;;;;;;;1.08;100.00;102159.88;4950390;28;20377;-88
2022/12/03 02:19:00;;;;;;;35.57;28.30;;;;;;;1.08;100.00;102154.53;4951537;28;20305;-87
2022/12/03 02:21:46;;;;;;;37.53;28.23;;;;;;;1.16;100.00;102165.47;4934438;28;20620;-85
2022/12/03 02:24:39;;;;;;;34.90;27.23;;;;;;;1.12;100.00;102158.66;4951741;28;20030;-88
2022/12/03 02:27:05;;;;;;;34.57;26.47;;;;;;;1.08;100.00;102151.88;4931760;28;20045;-87
2022/12/03 02:29:30;;;;;;;31.97;25.80;;;;;;;1.11;100.00;102156.97;4951166;28;20043;-88
2022/12/03 02:31:56;;;;;;;32.40;26.17;;;;;;;1.12;100.00;102152.50;4950697;28;20043;-87
2022/12/03 02:34:37;;;;;;;32.73;25.37;;;;;;;1.12;100.00;102150.66;4951201;28;20043;-87
2022/12/03 02:37:07;;;;;;;35.10;27.43;;;;;;;1.13;100.00;102152.38;4950204;28;20045;-87
2022/12/03 02:39:36;;;;;;;32.43;25.33;;;;;;;1.05;100.00;102141.44;4950608;28;20506;-86
2022/12/03 02:44:46;;;;;;;34.85;27.20;;;;;;;1.10;100.00;102144.59;4950777;28;20062;-86
2022/12/03 02:47:11;;;;;;;33.33;26.87;;;;;;;1.02;100.00;102131.00;4933025;28;20038;-88
2022/12/03 02:49:37;;;;;;;33.50;26.87;;;;;;;1.07;100.00;102139.47;4950686;28;20035;-87
2022/12/03 02:52:03;;;;;;;34.90;27.90;;;;;;;0.99;100.00;102136.56;4950831;28;20381;-88
2022/12/03 02:54:28;;;;;;;35.03;28.30;;;;;;;1.01;100.00;102146.16;4950069;28;20487;-88
2022/12/03 02:56:53;;;;;;;33.83;27.10;;;;;;;0.96;100.00;102132.28;4950580;28;20082;-87
2022/12/03 02:59:19;;;;;;;32.13;26.03;;;;;;;1.00;100.00;102138.25;4939761;28;20049;-87
2022/12/03 03:01:44;;;;;;;35.20;27.03;;;;;;;0.94;100.00;102141.38;4950032;28;20050;-88
2022/12/03 03:04:10;;;;;;;31.83;25.97;;;;;;;1.01;100.00;102140.81;4949274;28;20031;-87
2022/12/03 03:06:35;;;;;;;35.33;27.27;;;;;;;1.03;100.00;102134.50;4949532;28;20038;-87
2022/12/03 03:09:01;;;;;;;35.20;27.17;;;;;;;1.00;100.00;102135.59;4950540;28;20070;-88
2022/12/03 03:11:27;;;;;;;33.77;26.53;;;;;;;1.07;100.00;102128.81;4936177;28;20590;-87
2022/12/03 03:13:52;;;;;;;35.63;27.03;;;;;;;1.00;100.00;102119.56;4954407;28;20538;-86
2022/12/03 03:16:18;;;;;;;33.60;26.43;;;;;;;0.95;100.00;102111.94;4953623;28;20055;-88
2022/12/03 03:18:43;;;;;;;34.70;27.93;;;;;;;1.04;100.00;102128.22;4943532;28;20039;-86
2022/12/03 03:21:09;;;;;;;33.73;27.07;;;;;;;1.10;100.00;102128.59;4954328;28;20045;-87
2022/12/03 03:23:34;;;;;;;33.43;27.47;;;;;;;1.03;100.00;102119.34;4936297;28;20062;-86
2022/12/03 03:25:59;;;;;;;35.90;26.90;;;;;;;1.04;100.00;102118.38;4943147;28;20043;-87
2022/12/03 03:28:27;;;;;;;33.90;27.33;;;;;;;0.98;100.00;102108.16;4954344;28;20434;-89
2022/12/03 03:30:52;;;;;;;34.87;27.83;;;;;;;1.09;100.00;102110.88;4938177;28;20042;-86
2022/12/03 03:33:18;;;;;;;34.63;27.17;;;;;;;1.05;100.00;102121.88;4954316;28;20047;-87
2022/12/03 03:35:46;;;;;;;33.83;26.37;;;;;;;1.06;100.00;102113.78;4953467;28;20158;-87
2022/12/03 03:38:11;;;;;;;33.80;26.73;;;;;;;1.06;100.00;102121.78;4953898;28;20050;-88
2022/12/03 03:40:37;;;;;;;34.47;27.87;;;;;;;1.02;100.00;102106.97;4953321;28;20219;-88
2022/12/03 03:43:04;;;;;;;34.60;27.37;;;;;;;1.01;100.00;102118.63;4955154;28;20039;-87
2022/12/03 03:45:29;;;;;;;34.50;28.03;;;;;;;0.99;100.00;102099.19;4954149;28;20055;-88
2022/12/03 03:47:57;;;;;;;34.17;26.83;;;;;;;1.05;100.00;102109.41;4942854;28;20701;-86
2022/12/03 03:50:23;;;;;;;34.47;27.77;;;;;;;1.02;100.00;102098.97;4953686;28;20027;-88
2022/12/03 03:52:49;;;;;;;34.97;27.70;;;;;;;1.05;100.00;102103.19;4937030;28;20103;-88
2022/12/03 03:55:19;;;;;;;35.13;26.97;;;;;;;1.08;100.00;102109.16;4943628;28;20760;-87
2022/12/03 03:57:45;;;;;;;34.97;28.67;;;;;;;1.07;100.00;102103.94;4941618;28;20335;-87
2022/12/03 04:00:12;;;;;;;35.37;28.03;;;;;;;1.03;100.00;102094.47;4954271;28;20326;-87
2022/12/03 04:02:37;;;;;;;33.63;27.03;;;;;;;1.06;100.00;102105.78;4942850;28;20399;-90
2022/12/03 04:05:03;;;;;;;34.33;27.57;;;;;;;0.97;100.00;102107.31;4936207;28;20305;-88
2022/12/03 04:07:29;;;;;;;34.50;27.03;;;;;;;1.01;100.00;102100.78;4953732;28;20035;-87
2022/12/03 04:09:54;;;;;;;34.47;27.63;;;;;;;1.03;100.00;102103.31;4952816;28;20632;-87
2022/12/03 04:15:04;;;;;;;35.87;27.63;;;;;;;0.94;100.00;102096.00;4945749;28;20113;-87
2022/12/03 04:17:29;;;;;;;35.77;28.50;;;;;;;1.02;100.00;102101.66;4953327;28;20479;-87
2022/12/03 04:19:55;;;;;;;36.07;28.73;;;;;;;1.05;100.00;102098.72;4952604;28;20039;-86
2022/12/03 04:22:38;;;;;;;35.17;28.23;;;;;;;1.00;100.00;102100.91;4952238;28;20261;-87
2022/12/03 04:30:32;;;;;;;38.13;29.60;;;;;;;0.93;100.00;102108.53;4953104;28;20092;-86
2022/12/03 04:35:42;;;;;;;34.93;28.17;;;;;;;0.99;100.00;102104.53;4951828;28;20109;-88
2022/12/03 04:38:11;;;;;;;35.27;28.57;;;;;;;1.00;100.00;102111.56;4953292;28;20317;-87
2022/12/03 04:43:21;;;;;;;;;;;;;;;1.16;100.00;102100.56;4952936;28;20555;-87
2022/12/03 04:45:46;;;;;;;38.80;29.73;;;;;;;1.03;100.00;102091.81;4953198;28;19930;-87
2022/12/03 04:48:12;;;;;;;37.10;29.50;;;;;;;1.02;100.00;102093.63;4952440;28;20057;-88
2022/12/03 04:50:37;;;;;;;37.90;30.30;;;;;;;0.97;100.00;102077.97;4930330;28;20397;-89
2022/12/03 04:53:02;;;;;;;35.63;28.80;;;;;;;0.98;100.00;102084.13;4952194;28;20118;-89
2022/12/03 04:55:28;;;;;;;36.57;29.27;;;;;;;0.94;100.00;102088.00;4953225;28;20499;-87
2022/12/03 04:57:53;;;;;;;38.27;30.23;;;;;;;0.93;100.00;102083.66;4952807;28;20039;-88
2022/12/03 05:00:19;;;;;;;38.70;29.10;;;;;;;0.98;100.00;102081.47;4952436;28;20472;-87
2022/12/03 05:02:44;;;;;;;37.33;29.57;;;;;;;0.89;100.00;102080.38;4941320;28;20468;-88
2022/12/03 05:05:09;;;;;;;39.00;30.57;;;;;;;0.99;100.00;102088.50;4941292;28;20043;-89
2022/12/03 05:07:35;;;;;;;37.87;29.37;;;;;;;0.97;100.00;102088.63;4953056;28;20035;-89
2022/12/03 05:10:01;;;;;;;38.33;29.77;;;;;;;0.97;100.00;102091.31;4951642;28;20118;-87
2022/12/03 05:12:26;;;;;;;38.93;30.30;;;;;;;0.94;100.00;102086.22;4952345;28;20121;-87
2022/12/03 05:14:51;;;;;;;38.20;30.23;;;;;;;0.86;100.00;102072.59;4922183;28;20035;-88
2022/12/03 05:17:17;;;;;;;38.23;29.10;;;;;;;0.93;100.00;102081.84;4951748;28;20049;-89
2022/12/03 05:22:30;;;;;;;39.10;31.23;;;;;;;0.89;100.00;102080.38;4916252;28;20333;-87
2022/12/03 05:24:56;;;;;;;39.10;30.67;;;;;;;0.87;100.00;102073.44;4952182;28;20341;-88
2022/12/03 05:27:21;;;;;;;38.10;30.20;;;;;;;0.85;100.00;102073.56;4943313;28;20129;-86
2022/12/03 05:29:47;;;;;;;39.90;30.60;;;;;;;0.89;100.00;102077.69;4952108;28;20074;-88
2022/12/03 05:32:12;;;;;;;39.13;31.03;;;;;;;0.90;100.00;102081.22;4950688;28;20118;-88
2022/12/03 05:34:38;;;;;;;39.53;30.47;;;;;;;0.68;100.00;102053.53;4951820;28;20376;-88
2022/12/03 05:37:03;;;;;;;41.60;31.60;;;;;;;0.80;100.00;102065.06;4952395;28;20142;-87
2022/12/03 05:39:28;;;;;;;37.33;29.07;;;;;;;0.87;100.00;102062.78;4952991;28;20049;-88
2022/12/03 05:44:38;;;;;;;38.03;29.37;;;;;;;0.78;100.00;102059.00;4942557;28;20906;-88
2022/12/03 05:47:03;;;;;;;38.67;30.10;;;;;;;0.88;100.00;102067.16;4951702;28;20043;-89
2022/12/03 05:49:28;;;;;;;37.30;29.33;;;;;;;0.86;100.00;102066.41;4937512;28;20053;-87
2022/12/03 05:51:54;;;;;;;38.10;28.93;;;;;;;0.71;100.00;102042.63;4933870;28;20120;-89
2022/12/03 05:54:19;;;;;;;38.80;29.10;;;;;;;0.82;100.00;102066.66;4934021;28;20039;-86
2022/12/03 05:56:44;;;;;;;39.40;30.17;;;;;;;0.84;100.00;102070.06;4924553;28;20122;-88
2022/12/03 05:59:10;;;;;;;38.90;30.10;;;;;;;0.80;100.00;102067.72;4951937;28;20100;-86
2022/12/03 06:01:35;;;;;;;41.17;30.83;;;;;;;0.84;100.00;102067.41;4940500;28;20165;-87
2022/12/03 06:04:00;;;;;;;41.00;31.00;;;;;;;0.80;100.00;102065.94;4939770;28;20057;-87
2022/12/03 06:06:26;;;;;;;41.83;31.87;;;;;;;0.85;100.00;102065.56;4951127;28;20035;-88
2022/12/03 06:08:51;;;;;;;40.10;30.63;;;;;;;0.82;100.00;102057.81;4950927;28;20531;-88
2022/12/03 06:11:16;;;;;;;39.77;30.63;;;;;;;0.86;100.00;102069.06;4934817;28;21338;-86
2022/12/03 06:13:42;;;;;;;40.53;31.20;;;;;;;0.83;100.00;102062.19;4951050;28;20053;-86
2022/12/03 06:16:07;;;;;;;41.10;31.10;;;;;;;0.81;100.00;102061.44;4951271;28;20035;-88
2022/12/03 06:18:32;;;;;;;39.73;30.17;;;;;;;0.84;100.00;102064.72;4938641;28;20038;-88
2022/12/03 06:20:58;;;;;;;45.03;32.47;;;;;;;0.79;100.00;102058.88;4933480;28;20043;-88
2022/12/03 06:23:23;;;;;;;41.57;31.00;;;;;;;0.84;100.00;102063.84;4943390;28;20246;-88
2022/12/03 06:25:48;;;;;;;41.73;31.33;;;;;;;0.76;100.00;102051.13;4939404;28;20181;-87
2022/12/03 06:28:14;;;;;;;42.70;31.30;;;;;;;0.86;100.00;102066.41;4950775;28;20166;-87
2022/12/03 06:30:39;;;;;;;39.50;30.00;;;;;;;0.83;100.00;102063.00;4951084;28;20093;-88
2022/12/03 06:33:04;;;;;;;41.27;30.87;;;;;;;0.75;100.00;102049.41;4951398;28;20085;-89
2022/12/03 06:35:30;;;;;;;40.00;30.87;;;;;;;0.78;100.00;102053.66;4951384;28;20050;-88
2022/12/03 06:37:55;;;;;;;38.97;29.97;;;;;;;0.76;100.00;102053.78;4951768;28;20539;-88
2022/12/03 06:40:23;;;;;;;39.57;30.13;;;;;;;0.81;100.00;102062.25;4924266;28;20070;-89
2022/12/03 06:42:48;;;;;;;39.83;30.60;;;;;;;0.80;100.00;102063.25;4938246;28;20039;-88
2022/12/03 06:45:14;;;;;;;41.57;30.33;;;;;;;0.73;100.00;102055.84;4933151;28;20736;-86
2022/12/03 06:47:39;;;;;;;38.50;29.97;;;;;;;0.76;100.00;102055.59;4951129;28;20042;-86
2022/12/03 06:50:06;;;;;;;39.63;30.40;;;;;;;0.75;100.00;102054.75;4947706;28;20444;-84
2022/12/03 06:52:31;;;;;;;40.47;31.00;;;;;;;0.76;100.00;102051.13;4950679;28;20030;-87
2022/12/03 06:54:57;;;;;;;39.97;30.07;;;;;;;0.74;100.00;102041.53;4951032;28;20353;-88
2022/12/03 06:57:22;;;;;;;37.23;29.00;;;;;;;0.75;100.00;102044.09;4950923;28;20468;-88
2022/12/03 06:59:47;;;;;;;41.90;30.20;;;;;;;0.79;100.00;102047.34;4950746;28;20039;-88
2022/12/03 07:02:13;;;;;;;37.77;28.53;;;;;;;0.80;100.00;102047.25;4946171;28;20043;-88
2022/12/03 07:04:38;;;;;;;40.43;29.23;;;;;;;0.79;100.00;102052.69;4947773;28;20070;-89
2022/12/03 07:07:03;;;;;;;39.00;29.57;;;;;;;0.77;100.00;102052.81;4951178;28;20039;-89
2022/12/03 07:09:29;;;;;;;39.13;28.80;;;;;;;0.71;100.00;102031.06;4939208;28;20391;-88
2022/12/03 07:11:54;;;;;;;37.33;27.60;;;;;;;0.80;100.00;102047.25;4961496;28;20034;-85
2022/12/03 07:14:19;;;;;;;37.53;28.40;;;;;;;0.86;100.00;102042.38;4947088;28;20058;-85
2022/12/03 07:16:45;;;;;;;35.50;26.83;;;;;;;0.84;100.00;102047.84;4950022;28;20494;-86
2022/12/03 07:19:10;;;;;;;36.90;28.07;;;;;;;0.82;100.00;102050.63;4950981;28;20116;-88
2022/12/03 07:21:36;;;;;;;35.30;26.93;;;;;;;0.79;100.00;102045.53;4949544;28;20439;-87
2022/12/03 07:24:01;;;;;;;35.83;26.43;;;;;;;0.82;100.00;102055.97;4934412;28;20047;-85
2022/12/03 07:26:26;;;;;;;34.77;25.43;;;;;;;0.86;100.00;102053.06;4936782;28;20043;-87
2022/12/03 07:28:52;;;;;;;34.07;25.77;;;;;;;0.84;100.00;102053.19;4950164;28;20475;-86
2022/12/03 07:31:17;;;;;;;35.17;26.37;;;;;;;0.83;100.00;102048.84;4949934;28;20050;-88
2022/12/03 07:33:43;;;;;;;35.40;25.90;;;;;;;0.79;100.00;102050.00;4949277;28;20042;-87
2022/12/03 07:36:09;;;;;;;34.13;25.37;;;;;;;0.76;100.00;102045.78;4948439;28;20031;-88
2022/12/03 07:38:34;;;;;;;34.57;26.50;;;;;;;0.83;100.00;102052.34;4950376;28;20361;-86
2022/12/03 07:41:00;;;;;;;35.20;26.27;;;;;;;0.78;100.00;102043.84;4946390;28;20590;-85
2022/12/03 07:43:25;;;;;;;35.73;26.23;;;;;;;0.85;100.00;102054.88;4954949;28;20395;-87
2022/12/03 07:45:51;;;;;;;34.57;25.93;;;;;;;0.83;100.00;102057.69;4949451;28;20050;-88
2022/12/03 07:48:16;;;;;;;33.47;24.57;;;;;;;0.80;100.00;102055.25;4938930;28;20043;-88
2022/12/03 07:50:41;;;;;;;34.73;25.83;;;;;;;0.80;100.00;102044.59;4939314;28;20494;-89
2022/12/03 07:53:07;;;;;;;35.27;26.00;;;;;;;0.79;100.00;102042.00;4932048;28;20142;-86
2022/12/03 07:55:32;;;;;;;35.27;26.30;;;;;;;0.90;100.00;102066.06;4960415;28;20081;-86
2022/12/03 07:57:57;;;;;;;35.77;26.43;;;;;;;0.89;100.00;102053.69;4965655;28;20117;-86
2022/12/03 08:00:23;;;;;;;34.37;26.17;;;;;;;0.87;100.00;102052.09;4955698;28;20506;-88
2022/12/03 08:02:48;;;;;;;34.27;26.17;;;;;;;0.81;100.00;102051.59;4977191;28;20113;-85
2022/12/03 08:05:13;;;;;;;35.47;27.13;;;;;;;0.80;100.00;102049.91;4966333;28;20034;-87
2022/12/03 08:07:39;;;;;;;37.43;26.83;;;;;;;0.86;100.00;102066.41;4952533;29;20039;-86
2022/12/03 08:10:06;;;;;;;35.87;26.40;;;;;;;0.86;100.00;102069.94;4940476;28;20090;-86
2022/12/03 08:12:40;;;;;;;37.47;27.17;;;;;;;0.81;100.00;102056.94;4953229;28;20039;-87
2022/12/03 08:15:14;;;;;;;37.03;27.00;;;;;;;0.87;100.00;102060.09;4953393;28;20035;-87
2022/12/03 08:17:41;;;;;;;36.88;27.55;;;;;;;0.88;100.00;102064.47;4953102;28;20042;-88
2022/12/03 08:20:18;;;;;;;35.27;26.73;;;;;;;0.88;100.00;102069.81;4953385;28;20038;-88
2022/12/03 08:22:46;;;;;;;36.47;26.53;;;;;;;0.91;100.00;102066.91;4953441;28;20122;-88
2022/12/03 08:25:30;;;;;;;36.83;27.10;;;;;;;0.96;100.00;102070.06;4952772;28;20093;-86
2022/12/03 08:28:01;;;;;;;37.50;27.60;;;;;;;0.88;100.00;102064.47;4953189;28;20043;-88
2022/12/03 08:30:26;;;;;;;37.93;26.87;;;;;;;0.85;100.00;102057.56;4936221;28;20398;-87
2022/12/03 08:32:52;;;;;;;40.50;27.73;;;;;;;0.88;100.00;102065.31;4953213;28;20499;-87
2022/12/03 08:35:24;;;;;;;39.37;26.30;;;;;;;0.90;100.00;102071.41;4952754;28;20031;-88
2022/12/03 08:37:58;;;;;;;39.80;27.73;;;;;;;0.88;100.00;102075.16;4950460;28;20045;-87
2022/12/03 08:40:41;;;;;;;39.65;27.88;;;;;;;0.82;100.00;102058.63;4951630;28;20046;-88
2022/12/03 08:43:31;;;;;;;40.37;28.03;;;;;;;0.85;100.00;102070.91;4934007;28;20043;-87
2022/12/03 08:45:57;;;;;;;38.83;28.57;;;;;;;0.75;100.00;102054.75;4952000;28;20646;-88
2022/12/03 08:48:37;;;;;;;38.30;27.03;;;;;;;0.87;100.00;102068.09;4952503;28;20315;-88
2022/12/03 08:51:07;;;;;;;40.40;27.93;;;;;;;0.86;100.00;102061.06;4951955;28;20050;-87
2022/12/03 08:53:41;;;;;;;40.60;28.03;;;;;;;0.86;100.00;102064.59;4953298;28;20286;-88
2022/12/03 08:56:19;;;;;;;38.30;26.07;;;;;;;0.91;100.00;102065.09;4951156;28;20310;-89
2022/12/03 08:59:01;;;;;;;39.53;26.70;;;;;;;0.80;100.00;102065.06;4952592;28;20461;-88
2022/12/03 09:01:37;;;;;;;39.07;27.63;;;;;;;0.84;100.00;102064.72;4951228;28;20050;-89
2022/12/03 09:04:44;;;;;;;39.47;27.53;;;;;;;0.89;100.00;102063.53;4952448;28;20565;-88
2022/12/03 09:07:09;;;;;;;38.03;26.63;;;;;;;0.93;100.00;102059.66;4945219;28;20301;-88
2022/12/03 09:09:35;;;;;;;39.80;28.27;;;;;;;0.87;100.00;102060.09;4952795;28;20297;-89
2022/12/03 09:12:03;;;;;;;39.87;27.20;;;;;;;0.86;100.00;102066.41;4952588;28;20046;-87
2022/12/03 09:14:28;;;;;;;38.80;28.10;;;;;;;0.83;100.00;102062.19;4936040;28;20078;-87
2022/12/03 09:16:54;;;;;;;40.10;28.50;;;;;;;0.86;100.00;102069.06;4952792;28;20386;-88
2022/12/03 09:19:24;;;;;;;41.53;28.87;;;;;;;0.74;100.00;102047.72;4944007;28;20046;-87
2022/12/03 09:21:50;;;;;;;38.97;28.10;;;;;;;0.91;100.00;102066.91;4939928;28;20039;-85
2022/12/03 09:24:16;;;;;;;41.70;29.27;;;;;;;0.73;100.00;102039.81;4952745;28;20035;-87
2022/12/03 09:26:41;;;;;;;39.77;28.50;;;;;;;0.88;100.00;102062.66;4951484;28;20563;-87
2022/12/03 09:29:06;;;;;;;39.80;28.77;;;;;;;0.82;100.00;102063.97;4934845;28;20050;-88
2022/12/03 09:31:33;;;;;;;41.07;29.03;;;;;;;0.81;100.00;102056.94;4952871;28;20038;-88
2022/12/03 09:33:59;;;;;;;43.03;30.27;;;;;;;0.79;100.00;102053.53;4952354;28;20471;-87
2022/12/03 09:36:24;;;;;;;43.23;29.97;;;;;;;0.78;100.00;102053.66;4953161;28;20767;-89
2022/12/03 09:38:50;;;;;;;42.70;29.70;;;;;;;0.81;100.00;102046.25;4940748;28;20369;-90
2022/12/03 09:41:15;;;;;;;45.00;30.07;;;;;;;0.87;100.00;102057.44;4938863;28;20035;-87
2022/12/03 09:43:41;;;;;;;44.63;30.17;;;;;;;0.82;100.00;102061.31;4940794;28;20039;-89
2022/12/03 09:46:07;;;;;;;44.40;30.60;;;;;;;0.84;100.00;102054.06;4951888;28;20113;-88
2022/12/03 09:48:34;;;;;;;46.03;30.43;;;;;;;0.80;100.00;102060.59;4953800;28;20038;-86
2022/12/03 09:51:01;;;;;;;43.13;31.07;;;;;;;0.84;100.00;102054.06;4956138;28;20282;-86
2022/12/03 09:53:27;;;;;;;41.43;29.93;;;;;;;0.82;100.00;102049.78;4936634;28;20386;-88
2022/12/03 09:55:52;;;;;;;42.57;29.80;;;;;;;0.83;100.00;102046.16;4951667;28;20297;-88
2022/12/03 09:58:18;;;;;;;43.30;29.10;;;;;;;0.79;100.00;102042.88;4951624;28;20043;-87
2022/12/03 10:00:47;;;;;;;44.50;29.33;;;;;;;0.79;100.00;102040.22;4952533;28;20702;-88
2022/12/03 10:03:15;;;;;;;45.07;30.20;;;;;;;0.75;100.00;102036.06;4938007;28;20034;-87
2022/12/03 10:05:41;;;;;;;44.40;30.57;;;;;;;0.80;100.00;102036.56;4933897;28;20061;-85
2022/12/03 10:08:09;;;;;;;43.73;30.70;;;;;;;0.80;100.00;102041.03;4952059;28;20550;-87
2022/12/03 10:10:37;;;;;;;45.33;30.57;;;;;;;0.77;100.00;102042.13;4951292;28;20042;-90
2022/12/03 10:13:04;;;;;;;44.43;30.03;;;;;;;0.76;100.00;102029.78;4951485;28;20050;-89
2022/12/03 10:15:30;;;;;;;44.73;30.33;;;;;;;0.76;100.00;102032.44;4951613;28;20857;-88
2022/12/03 10:17:57;;;;;;;44.03;29.60;;;;;;;0.76;100.00;102024.44;4951649;28;20314;-88
2022/12/03 10:20:24;;;;;;;44.73;30.67;;;;;;;0.68;100.00;102021.53;4937811;28;20310;-86
2022/12/03 10:22:49;;;;;;;43.93;30.27;;;;;;;0.71;100.00;102026.63;4951365;28;20314;-88
2022/12/03 10:25:17;;;;;;;44.53;31.37;;;;;;;0.74;100.00;102023.69;4951843;28;20298;-87
2022/12/03 10:27:55;;;;;;;44.73;30.93;;;;;;;0.77;100.00;102018.13;4950810;28;20099;-87
2022/12/03 10:30:22;;;;;;;43.83;31.10;;;;;;;0.73;100.00;102005.97;4951796;28;20385;-89
2022/12/03 10:32:49;;;;;;;44.27;30.97;;;;;;;0.83;100.00;102022.16;4940304;28;20282;-87
2022/12/03 10:35:20;;;;;;;42.10;27.63;;;;;;;0.71;100.00;102007.94;4950868;28;20306;-88
2022/12/03 10:38:15;;;;;;;39.53;26.93;;;;;;;0.80;100.00;102017.91;4951876;28;20453;-88
2022/12/03 10:40:41;;;;;;;36.77;24.30;;;;;;;0.75;100.00;102019.19;4954512;28;20290;-89
2022/12/03 10:43:18;;;;;;;34.67;23.67;;;;;;;0.70;100.00;102014.22;4975146;28;20293;-88
2022/12/03 10:45:46;;;;;;;32.07;22.37;;;;;;;0.70;98.40;102006.22;4951886;28;20598;-89
2022/12/03 10:48:20;;;;;;;33.23;23.03;;;;;;;0.62;98.56;101997.97;4934112;28;20039;-87
2022/12/03 10:50:49;;;;;;;32.58;23.05;;;;;;;0.65;99.80;102001.25;4952446;28;20113;-87
2022/12/03 10:53:16;;;;;;;30.97;21.67;;;;;;;0.69;98.69;102001.84;4950893;28;20085;-87
2022/12/03 10:55:43;;;;;;;29.60;21.50;;;;;;;0.64;98.51;101978.22;4933837;28;20782;-88
2022/12/03 10:58:19;;;;;;;25.93;18.77;;;;;;;0.70;96.90;101982.22;4949006;28;20413;-87
2022/12/03 11:00:44;;;;;;;27.87;19.33;;;;;;;0.76;98.74;101973.75;4951306;28;20298;-88
2022/12/03 11:03:27;;;;;;;26.83;18.77;;;;;;;0.80;97.05;101979.69;4950516;28;20924;-88
2022/12/03 11:05:55;;;;;;;26.50;19.93;;;;;;;0.66;96.57;101978.94;4951458;28;20035;-89
2022/12/03 11:08:24;;;;;;;27.33;19.27;;;;;;;0.72;97.51;101971.44;4955759;28;20825;-86
2022/12/03 11:11:00;;;;;;;27.43;19.47;;;;;;;0.72;96.45;101976.75;4958593;28;20358;-86
2022/12/03 11:13:44;;;;;;;26.10;19.07;;;;;;;0.78;97.00;101976.31;4963727;28;20293;-87
2022/12/03 11:16:09;;;;;;;26.07;18.50;;;;;;;0.70;96.22;101976.06;4953607;28;20330;-89
2022/12/03 11:18:35;;;;;;;26.13;18.93;;;;;;;0.74;96.82;101973.00;4949016;28;20456;-87
2022/12/03 11:21:05;;;;;;;25.53;18.53;;;;;;;0.73;96.12;101965.97;4934451;28;20431;-89
2022/12/03 11:23:45;;;;;;;28.03;19.77;;;;;;;0.81;97.75;101971.56;4950707;28;20085;-88
2022/12/03 11:26:16;;;;;;;28.90;20.87;;;;;;;0.73;97.04;101944.63;4950938;28;20400;-87
2022/12/03 11:28:44;;;;;;;27.93;20.63;;;;;;;0.77;96.75;101962.09;4951174;28;20489;-88
2022/12/03 11:31:43;;;;;;;27.30;20.53;;;;;;;0.82;96.53;101957.25;4953562;28;20279;-88
2022/12/03 11:34:33;;;;;;;28.97;23.07;;;;;;;0.82;96.99;101957.25;4953771;28;20305;-87
2022/12/03 11:37:11;;;;;;;44.30;40.10;;;;;;;0.86;95.99;101949.88;4954402;28;20034;-89